Tiempo atmosférico en la estación meteorológica de Lleida, Lleida (192 m.)



Fecha
DESCASC
Temp. máxima en grados centígrados (hora)
DESCASC
Temp. mínima en grados centígrados (hora)
DESCASC
Temp. media en grados centígrados
DESCASC
Racha de viento máxima en m/sg (hora)
DESCASC
Velocidad máxima media en intervalos de 10 minutos(hora)
DESCASC
Precipitaciones diarias en mm
DESCASC
Precipitaciones de 00:00 a 06:00 en mm
DESCASC
Precipitaciones de 06:00 a 12:00 en mm
DESCASC
Precipitaciones de 12:00 a 18:00 en mm
DESCASC
Precipitaciones de 18:00 a 24:00 en mm
DESCASC
22-04-2019 17.3 (14:50) 9.9 (05:40) 13.6 -- (--) -- (--) -- -- -- 0.4 0
21-04-2019 17.7 (17:00) 9.2 (03:40) 13.5 8.33 (00:50) 4.72 (17:10) 3.8 2.8 1 0 0
20-04-2019 20.9 (14:00) 9.4 (08:20) 15.1 13.89 (13:30) 7.5 (13:30) -- -- 0 0 2.8
19-04-2019 22.2 (17:20) 13.9 (04:40) 18.1 14.17 (14:40) 8.33 (14:50) 0 0 0 0 0
18-04-2019 19.3 (16:20) 9.7 (00:00) 14.5 -- (--) -- (--) -- 0 -- -- 0
17-04-2019 22.4 (16:40) 7.4 (00:00) 14.9 8.89 (14:10) 5.28 (14:10) -- -- 0 0 0
16-04-2019 21.7 (17:30) 6.7 (00:00) 14.2 7.22 (19:20) 3.89 (19:20) -- 0.4 -- 0 0
15-04-2019 22 (15:00) 9.5 (00:00) 15.8 8.89 (14:40) 4.72 (18:20) -- -- 0 0 0.6
14-04-2019 26 (16:40) 4.9 (00:00) 15.5 13.33 (18:10) 8.33 (18:10) -- 0 0 -- 0
13-04-2019 23.6 (17:40) 2.8 (00:00) 13.2 7.78 (15:30) 4.44 (15:20) -- 0 0 -- 0
12-04-2019 22.1 (18:20) 4.9 (00:00) 13.5 -- (--) -- (--) -- 0 0 -- --
11-04-2019 20.5 (16:50) 5.5 (00:00) 13 11.67 (17:30) 7.5 (17:50) 0 0 0 0 0
10-04-2019 19.8 (16:00) 6.4 (00:00) 13.1 10 (16:40) 5.83 (16:40) 0 0 0 0 0
09-04-2019 19.6 (17:40) 8.7 (00:00) 14.2 11.94 (11:30) 7.5 (11:30) 5.4 1.2 3.8 0 0.4
08-04-2019 20.2 (17:20) 5.9 (00:00) 13.1 10 (20:30) 5.56 (20:30) -- -- 0 0 0
07-04-2019 17.7 (17:00) 4.5 (00:00) 11.1 10.83 (15:30) 6.67 (16:40) 0 0 0 0 0
06-04-2019 16.1 (18:00) 6.4 (00:00) 11.3 10.83 (21:00) 6.11 (20:50) -- -- 1.2 0 0
05-04-2019 16.1 (15:20) 3.3 (00:00) 9.7 -- (--) -- (--) -- -- 1.2 0 4.6
04-04-2019 15.9 (17:10) 2.3 (00:00) 9.1 12.5 (13:50) 6.67 (14:50) 0 0 0 0 0
03-04-2019 13.4 (15:00) 7.4 (00:00) 10.4 11.11 (23:10) 6.67 (23:00) 0.2 0 0 0 0.2
02-04-2019 20.9 (17:50) 7.3 (00:00) 14.1 7.5 (15:20) 4.17 (17:50) -- 0 0 -- 0
01-04-2019 18.5 (16:30) 9.2 (00:00) 13.8 6.39 (17:20) 3.61 (16:40) 0 0 0 0 0
31-03-2019 16.5 (17:10) 4.1 (00:00) 10.3 5 (18:10) 3.33 (18:30) -- 0 -- 0 0
30-03-2019 20.2 (16:30) 3.4 (00:00) 11.8 6.67 (17:50) 3.61 (18:10) 0 0 0 0 0
29-03-2019 20.2 (15:10) 4.1 (00:00) 12.2 6.67 (18:40) 3.61 (18:40) 0 0 0 0 0
28-03-2019 19.8 (17:10) 3.2 (00:00) 11.5 6.39 (13:50) 3.61 (19:20) -- -- 0 0 0
27-03-2019 20.1 (16:50) 2.3 (00:00) 11.2 6.67 (13:40) 4.17 (13:00) 0 0 0 0 0
26-03-2019 21.1 (17:00) 2.8 (00:00) 12 9.17 (19:00) 5 (19:20) 0 0 0 0 0
25-03-2019 -- (--) -- (--) -- -- (--) -- (--) -- 0 0 -- --

Gráficas

Temp. máximas Temp. mínimas Temp. medias Precipitaciones Rachas de viento máximas Velocidades máximas media en intervalos de 10 minutos

Datos horarios

Fecha y hora oficial Temperatura (ºC) Velocidad del viento (km/h) Dirección del viento Racha (km/h) Dirección de racha Precipitación (mm) Presión (hPa) Tendencia (hPa) Humedad (%)
2019-04-23 23:00:00 11.5 8 Oeste 15 Oeste 0 977.2 2.8 94
2019-04-23 22:00:00 11.4 5 Nordeste 9 Este 0 976.2 1.8 93
2019-04-23 21:00:00 12.1 4 Norte 19 Nordeste 0.2 975.2 3 91
2019-04-23 20:00:00 12.5 8 Norte 31 Oeste 4.8 974.4 2.1 89
2019-04-23 19:00:00 14.8 25 Oeste 45 Sudoeste 0 974.4 1.4 76
2019-04-23 18:00:00 20 13 Este 27 Sudeste 0 972.2 -1.2 58
2019-04-23 17:00:00 20.6 13 Este 27 Este 0 972.3 -1.9 54
2019-04-23 16:00:00 21 6 Este 15 Nordeste 0 973 -1.6 52
2019-04-23 15:00:00 20.4 8 Nordeste 17 Este 0 973.4 -1.4 55
2019-04-23 14:00:00 19.2 4 Sur 13 Nordeste 0 974.2 -0.3 59
2019-04-23 13:00:00 17.3 7 Nordeste 18 Norte 0 974.6 0.2 69
2019-04-23 12:00:00 15.8 7 Nordeste 13 Nordeste 0 974.8 0.6 79
2019-04-23 11:00:00 13.7 4 Nordeste 12 Nordeste 0 974.5 0.4 88
2019-04-23 10:00:00 12.2 4 Nordeste 9 Nordeste 0 974.4 0.5 94
2019-04-23 09:00:00 11.6 6 Nordeste 11 Nordeste 0 974.2 0.1 95
2019-04-23 08:00:00 11.2 0 Calma 4 Nordeste 0 974.1 -0.2 96
2019-04-23 07:00:00 11 0 Calma 5 Norte 0 973.9 -0.7 95
2019-04-23 06:00:00 10.9 0 Calma 5 Sudoeste 0 974.1 -1 95
2019-04-23 05:00:00 11.2 3 Sudoeste 6 Sudoeste 0 974.3 -1.4 95
2019-04-23 04:00:00 11.3 4 Sudoeste 11 Sudoeste 0 974.6 -1.6 94
2019-04-23 03:00:00 11.3 6 Sudoeste -- -- -- 975.1 -1.7 94
2019-04-23 02:00:00 11.5 5 Sudoeste 11 Sudoeste 0 975.7 -1.1 93
2019-04-23 01:00:00 11.8 6 Sudoeste 13 Sudoeste 0 976.2 -0.3 92
2019-04-23 00:00:00 12.2 7 Sudoeste 12 Sur 0 976.8 0.6 91
2019-04-22 23:00:00 12.6 5 Sudoeste 8 Sudoeste 0 976.8 0.9 89
2019-04-22 22:00:00 13.2 5 Sudoeste 9 Sudoeste 0 976.5 0.8 88
2019-04-22 21:00:00 13.7 5 Sudoeste 10 Sur 0 976.2 0 87
2019-04-22 20:00:00 14.7 5 Sudoeste 14 Sudoeste 0 975.9 -0.4 84
2019-04-22 19:00:00 14.8 8 Sudoeste 15 Sudoeste 0 975.7 -1 83
2019-04-22 18:00:00 14.5 10 Sudoeste 20 Sudoeste 0.4 976.2 -1.1 85
2019-04-22 17:00:00 14.9 12 Sudoeste 19 Sudoeste 0 976.3 -1.4 80
2019-04-22 16:00:00 16.9 8 Sudoeste 17 Oeste 0 976.7 -2 63
2019-04-22 15:00:00 17.2 6 Sudoeste 12 Oeste 0 977.3 -1.8 63
2019-04-22 14:00:00 16.7 8 Oeste 15 Oeste 0 977.7 -1.8 64
2019-04-22 13:00:00 16.3 3 Noroeste 7 Noroeste 0 978.7 -- 66
2019-04-22 12:00:00 15 3 Sudeste 13 Oeste 0 979.1 -0.4 73
2019-04-22 11:00:00 13.8 9 Noroeste -- -- -- 979.5 -0.4 76
2019-04-22 10:00:00 -- -- -- -- -- -- -- -- --
2019-04-22 09:00:00 11.7 8 Noroeste 16 Noroeste 0.2 979.5 0.1 88
2019-04-22 08:00:00 10.1 8 Oeste 11 Sudoeste 1 979.9 -- 94
2019-04-22 07:00:00 10.2 6 Sudoeste 10 Sudoeste 0.2 979.9 -1.3 92
2019-04-22 06:00:00 9.9 4 Sur 9 Sur 0 979.4 -3.2 88
2019-04-22 05:00:00 -- -- -- -- -- -- -- -- --
2019-04-22 04:00:00 11.7 3 Norte 9 Oeste 0 981.2 -3.2 72
2019-04-22 03:00:00 13.3 6 Noroeste 10 Noroeste 0 982.6 -2.5 64
2019-04-22 02:00:00 12.9 4 Noroeste 11 Norte 0 983.7 -2.3 69
2019-04-22 01:00:00 13 5 Norte 10 Norte 0 984.4 -1.7 69
2019-04-22 00:00:00 13 4 Noroeste 10 Noroeste 0 985.1 -0.6 81
2019-04-21 23:00:00 13.6 5 Noroeste 10 Noroeste 0 986 0.8 78
2019-04-21 22:00:00 14.7 6 Este 14 Este 0 986.1 0.6 60
2019-04-21 21:00:00 15.5 6 Norte 23 Sudeste 0 985.7 -0.3 59
2019-04-21 20:00:00 15.9 7 Nordeste 17 Nordeste 0 985.2 -1.4 57
2019-04-21 19:00:00 16.6 6 Norte 12 Nordeste 0 985.5 -1.7 55
2019-04-21 18:00:00 17.4 7 Nordeste 30 Nordeste 0 986 -2 51
2019-04-21 17:00:00 17.6 15 Nordeste 30 Nordeste 0 986.6 -2 49
2019-04-21 16:00:00 16.1 7 Nordeste 14 Nordeste 0 987.2 -2.2 64
2019-04-21 15:00:00 14.7 3 Nordeste 6 Este 0 988 -1.8 75
2019-04-21 14:00:00 13.3 2 Nordeste 5 Nordeste 0 988.6 -1.4 88
2019-04-21 13:00:00 12.8 4 Sudoeste 8 Sudoeste 0 989.4 -0.9 90
2019-04-21 12:00:00 11.9 4 Sur 9 Sudoeste 0 989.8 -0.7 92
2019-04-21 11:00:00 10.8 6 Sudoeste 8 Sudoeste 0 990 -0.7 94
2019-04-21 10:00:00 10.1 3 Sudoeste 4 Sudoeste 0 990.3 -0.7 95
2019-04-21 09:00:00 9.7 3 Sudoeste 14 Oeste 0 990.5 -1.4 95
2019-04-21 08:00:00 9.9 7 Noroeste 17 Sur 1 990.7 -1.7 92
2019-04-21 07:00:00 9.5 6 Sudeste 13 Sudeste 0 991 -2.4 92
2019-04-21 06:00:00 9.3 3 Sudeste 13 Noroeste 0 991.9 -2.2 94
2019-04-21 05:00:00 9.3 6 Noroeste 10 Noroeste 0.2 992.4 -2.3 95
2019-04-21 04:00:00 9.2 4 Sudoeste 10 Sudoeste 0 993.4 -2.5 95
2019-04-21 03:00:00 9.5 6 Sudoeste 13 Sudeste 0.4 994.1 -3.1 92
2019-04-21 02:00:00 10.1 10 Norte 29 Nordeste 0.2 994.7 -2.9 88
2019-04-21 01:00:00 9.3 13 Nordeste 30 Nordeste 2 995.9 -0.9 92
2019-04-21 00:00:00 9.4 14 Nordeste 33 Este 2.2 997.2 1.2 89
2019-04-20 23:00:00 10.8 19 Este 33 Nordeste 0.6 997.6 2.1 78
2019-04-20 22:00:00 12.8 17 Este 33 Sudeste 0 996.8 2.2 64
2019-04-20 21:00:00 13.2 18 Sudeste 39 Sudeste 0 996 1.8 63
2019-04-20 20:00:00 15.7 20 Sudeste 36 Sudeste 0 995.5 1.2 54
2019-04-20 19:00:00 17.1 20 Este 40 Este 0 994.6 -0.3 39
2019-04-20 18:00:00 18.5 24 Este 39 Este 0 994.2 -1.1 35
2019-04-20 17:00:00 19.6 24 Este 45 Este 0 994.3 -1.6 35
2019-04-20 16:00:00 19.7 25 Este 40 Nordeste 0 994.9 -1.5 35
2019-04-20 15:00:00 20.4 20 Nordeste 37 Nordeste 0 995.3 -1.4 32
2019-04-20 14:00:00 20.6 20 Este 50 Este 0 995.9 -1 34
2019-04-20 13:00:00 20.5 20 Este 40 Este 0 996.4 -1.2 34
2019-04-20 12:00:00 19.6 19 Este 35 Este 0 996.7 -1 35
2019-04-20 11:00:00 17.8 9 Nordeste 16 Nordeste 0 996.9 -0.7 40
2019-04-20 10:00:00 14.6 2 Oeste 9 Oeste 0 997.6 0.5 47
2019-04-20 09:00:00 9.8 6 Oeste 10 Sudoeste 0 997.7 0.1 65
2019-04-20 08:00:00 9.6 4 Sur 9 Norte 0 997.6 -- 61
2019-04-20 07:00:00 10.1 6 Nordeste 11 Norte 0 997.1 -1.4 55
2019-04-20 06:00:00 10.2 6 Norte -- -- -- 997.6 -1 56
2019-04-20 05:00:00 -- -- -- -- -- -- -- -- --
2019-04-20 04:00:00 12.3 6 Nordeste 15 Este 0 998.5 -0.1 47
2019-04-20 03:00:00 14.1 10 Este 19 Este 0 998.6 0 40
2019-04-20 02:00:00 15.3 10 Este 19 Nordeste 0 998.4 -0.6 35
2019-04-20 01:00:00 15.1 4 Norte 15 Este 0 998.6 0.1 42
2019-04-20 00:00:00 15.9 8 Nordeste 18 Nordeste 0 998.6 0.6 43
2019-04-19 23:00:00 16.7 6 Nordeste 41 Este 0 999 1.7 42
2019-04-19 22:00:00 17.1 14 Este 24 Este 0 998.5 2 36
2019-04-19 21:00:00 18 6 Nordeste 35 Sudeste 0 998 2 32
2019-04-19 20:00:00 19.9 17 Este 36 Este 0 997.3 1.6 29
2019-04-19 19:00:00 20.9 22 Este 40 Nordeste 0 996.5 0.7 28
2019-04-19 18:00:00 21.5 22 Nordeste 42 Este 0 996 -0.1 33
2019-04-19 17:00:00 22.1 24 Este 45 Nordeste 0 995.7 -0.5 32
2019-04-19 16:00:00 21.7 23 Este 50 Nordeste 0 995.8 -0.6 32
2019-04-19 15:00:00 20.6 28 Este 51 Este 0 996.1 -0.3 37
2019-04-19 14:00:00 20.3 24 Este 41 Este 0 996.2 0.4 43
2019-04-19 13:00:00 19.2 20 Este 40 Este 0 996.4 1 46
2019-04-19 12:00:00 18.6 19 Este 33 Nordeste 0 996.4 1.3 47
2019-04-19 11:00:00 17.4 18 Este 33 Este 0 995.8 1.4 47
2019-04-19 10:00:00 16.1 21 Este 35 Este 0 995.4 1.7 51
2019-04-19 09:00:00 15.3 19 Este 37 Este 0 995.1 1.8 52
2019-04-19 08:00:00 14.6 24 Este 38 Este 0 994.4 1 52
2019-04-19 07:00:00 14.3 24 Este 42 Este 0 993.7 -0.4 52
2019-04-19 06:00:00 14.3 24 Este 44 Este 0 993.3 -0.7 52
2019-04-19 05:00:00 14 22 Nordeste 36 Nordeste 0 993.4 -0.7 54
2019-04-19 04:00:00 14.1 10 Este 22 Nordeste 0 994.1 -0.4 53
2019-04-19 03:00:00 14.8 15 Este 28 Este 0 994 1.1 50
2019-04-19 02:00:00 14.6 12 Nordeste 25 Nordeste 0 994.1 1.7 52
2019-04-19 01:00:00 15.3 15 Nordeste 28 Este 0 994.5 3.2 46
2019-04-19 00:00:00 15.2 14 Nordeste 46 Este 0 992.9 1.6 47
2019-04-18 23:00:00 16.3 29 Este 44 Este 0 992.4 1.9 47
2019-04-18 22:00:00 16 15 Este 37 Este 0 991.3 1.3 50
2019-04-18 21:00:00 17.1 15 Este 37 Este 0 991.3 1.5 49
2019-04-18 20:00:00 17.8 22 Este 49 Este 0 990.5 0.3 48
2019-04-18 19:00:00 18.3 26 Este 50 Este 0 990 -0.4 47
2019-04-18 18:00:00 18.8 19 Este 50 Este 0 989.8 -1.2 45
2019-04-18 17:00:00 19.3 15 Este 39 Este 0 990.2 -1.2 43
2019-04-18 16:00:00 19.1 19 Nordeste 44 Este 0 990.4 -1.8 42
2019-04-18 15:00:00 18 18 Este 36 Este 0 991 -1.4 47
2019-04-18 14:00:00 16.8 18 Este 38 Este 0 991.4 -1.8 52
2019-04-18 13:00:00 15.9 26 Este -- -- -- 992.2 -2.4 54
2019-04-18 12:00:00 14.9 20 Nordeste 39 Este 0 992.4 -1.5 53
2019-04-18 11:00:00 13.2 13 Nordeste 22 Nordeste 0 993.2 -0.2 75
2019-04-18 10:00:00 13.2 5 Nordeste 18 Nordeste 0 994.6 -- 75
2019-04-18 09:00:00 11 8 Este 12 Nordeste 0 993.9 1.4 84
2019-04-18 08:00:00 10.5 6 Sudeste -- -- -- 993.4 0.1 86
2019-04-18 07:00:00 -- -- -- -- -- -- -- -- --
2019-04-18 06:00:00 9.7 10 Nordeste 21 Nordeste 0 992.5 -1.2 89
2019-04-18 05:00:00 9.7 8 Nordeste 15 Nordeste 0 993.3 -0.6 87
2019-04-18 04:00:00 10.7 7 Nordeste 12 Este 0 993.8 0.5 83
2019-04-18 03:00:00 11.9 8 Nordeste 19 Nordeste 0 993.7 0.5 79
2019-04-18 02:00:00 12.3 9 Nordeste 21 Nordeste 0 993.9 0.9 77
2019-04-18 01:00:00 12.4 12 Nordeste 21 Nordeste 0 993.3 0.6 75
2019-04-18 00:00:00 12.8 8 Nordeste 22 Nordeste 0 993.2 1.3 67
2019-04-17 23:00:00 13.5 12 Nordeste 21 Nordeste 0 993 1.8 66
2019-04-17 22:00:00 14.3 11 Este 27 Este 0 992.7 1.9 59
2019-04-17 21:00:00 15.6 15 Este 26 Sudeste 0 991.9 1 56
2019-04-17 20:00:00 17.5 16 Sudeste 31 Sudeste 0 991.2 0.3 51
2019-04-17 19:00:00 20 11 Este 25 Este 0 990.8 -1 47
2019-04-17 18:00:00 20.8 13 Este 26 Este 0 990.9 -1.4 45
2019-04-17 17:00:00 22 13 Este 26 Sudeste 0 990.9 -2.1 42
2019-04-17 16:00:00 21.7 10 Este 30 Este 0 991.8 -2.1 40
2019-04-17 15:00:00 21.1 13 Este 32 Este 0 992.3 -2.2 44
2019-04-17 14:00:00 20.8 15 Este 26 Este 0 993 -1.6 46
2019-04-17 13:00:00 20 7 Este 19 Sudeste 0 993.9 -0.8 46
2019-04-17 12:00:00 19.3 11 Sudeste 19 Sudeste 0 994.5 -0.5 49
2019-04-17 11:00:00 17 12 Este 21 Nordeste 0 994.6 -0.3 61
2019-04-17 10:00:00 13.7 11 Nordeste 20 Nordeste 0 994.7 -0.2 73
2019-04-17 09:00:00 10.8 11 Nordeste 19 Este 0 995 -0.1 83
2019-04-17 08:00:00 8.3 10 Nordeste 18 Nordeste 0 994.9 -1 91
2019-04-17 07:00:00 7.4 9 Nordeste 13 Nordeste 0 994.9 -1.6 93
2019-04-17 06:00:00 7.8 8 Nordeste 13 Nordeste 0 995.1 -1.4 90
2019-04-17 05:00:00 8.4 8 Nordeste -- -- -- 995.9 -0.5 88
2019-04-17 04:00:00 8.6 7 Norte 15 Nordeste 0 996.5 -0.1 86
2019-04-17 03:00:00 9 8 Nordeste 15 Norte 0 996.5 0 85
2019-04-17 02:00:00 9.4 7 Nordeste 12 Nordeste 0 996.4 0.1 79
2019-04-17 01:00:00 10.6 6 Nordeste 13 Nordeste 0 996.6 0.8 73
2019-04-17 00:00:00 11.5 7 Nordeste 11 Nordeste 0 996.5 1.4 68
2019-04-16 23:00:00 12.8 7 Nordeste 11 Nordeste 0 996.3 1.8 60
2019-04-16 22:00:00 14 6 Sudoeste 14 Sur 0 995.8 1.7 55
2019-04-16 21:00:00 15.5 6 Sur 21 Sur 0 995.1 1 54
2019-04-16 20:00:00 18.5 12 Sudeste 26 Sudeste 0 994.5 0.1 47
2019-04-16 19:00:00 20.7 8 Este 14 Nordeste 0 994.1 -0.7 41
2019-04-16 18:00:00 20.9 8 Nordeste 15 Nordeste 0 994.1 -1.3 41
2019-04-16 17:00:00 20.9 6 Norte 15 Este 0 994.4 -1.4 39
2019-04-16 16:00:00 20.2 7 Nordeste 18 Nordeste 0 994.8 -1.4 43
2019-04-16 15:00:00 19.7 5 Nordeste 16 Este 0 995.4 -0.9 44
2019-04-16 14:00:00 19 6 Este 13 Sur 0 995.8 -0.6 44
2019-04-16 13:00:00 18.2 5 Sudeste 12 Sudeste 0 996.2 0 48
2019-04-16 12:00:00 16.5 5 Sur 14 Sudoeste 0 996.3 0.8 55
2019-04-16 11:00:00 14.4 6 Sudoeste 16 Sudoeste 0 996.4 1.7 65
2019-04-16 10:00:00 12.4 8 Sudoeste 14 Sudoeste 0 996.2 2.1 72
2019-04-16 09:00:00 10.2 5 Sur 8 Sur 0 995.5 1.9 82
2019-04-16 08:00:00 7.6 3 Sur -- -- -- 994.7 1 92
2019-04-16 07:00:00 6.9 4 Sur 5 Sudeste 0 994.1 0.8 93
2019-04-16 06:00:00 7.6 3 Oeste 6 Sudoeste 0 993.6 0.7 88
2019-04-16 05:00:00 8.8 4 Nordeste 9 Nordeste 0 993.7 0.7 82
2019-04-16 04:00:00 8.8 4 Norte 12 Nordeste 0 993.3 0 81
2019-04-16 03:00:00 9.1 6 Nordeste 14 Nordeste 0 992.9 -0.5 80
2019-04-16 02:00:00 9.1 7 Nordeste 19 Nordeste 0 993 1.7 78
2019-04-16 01:00:00 10 5 Nordeste 20 Nordeste 0.4 993.3 2.3 75
2019-04-16 00:00:00 11.2 9 Norte 21 Nordeste 0.4 993.4 3.5 66
2019-04-15 23:00:00 11.6 14 Nordeste 26 Este 0 991.3 1 61
2019-04-15 22:00:00 12.8 14 Este 22 Este 0.2 991 1.1 60
2019-04-15 21:00:00 14.6 13 Este 23 Este 0 989.9 0.1 50
2019-04-15 20:00:00 16.1 9 Este 27 Este 0 990.3 0.3 48
2019-04-15 19:00:00 18.2 15 Este 27 Este 0 989.9 -0.6 43
2019-04-15 18:00:00 18.7 17 Este 27 Sudeste 0 989.8 -1 43
2019-04-15 17:00:00 19.7 13 Sur 28 Sudeste 0 990 -1.2 41
2019-04-15 16:00:00 21 12 Sudeste 27 Sur 0 990.5 -1.6 42
2019-04-15 15:00:00 21.9 9 Sur 32 Este 0 990.8 -1.9 42
2019-04-15 14:00:00 21.8 8 Sur 18 Sur 0 991.2 -1.7 44
2019-04-15 13:00:00 20.2 5 Sudeste 17 Este 0 992.1 -1 43
2019-04-15 12:00:00 18.8 6 Sudeste 18 Nordeste 0 992.7 -0.5 42
2019-04-15 11:00:00 17 9 Este 18 Este 0 992.9 0.1 47
2019-04-15 10:00:00 14.3 9 Este 21 Este 0 993.1 0.4 58
2019-04-15 09:00:00 11.6 8 Nordeste 14 Nordeste 0 993.2 0.9 71
2019-04-15 08:00:00 9.5 6 Nordeste 14 Nordeste 0 992.8 0.1 82
2019-04-15 07:00:00 9.8 5 Nordeste 12 Este 0 992.7 0.3 83
2019-04-15 06:00:00 10.2 7 Nordeste 18 Norte 0 992.3 0.1 85
2019-04-15 05:00:00 10.6 10 Nordeste -- -- -- 992.7 0.5 85
2019-04-15 04:00:00 11.3 10 Nordeste 24 Nordeste 0 992.4 0.7 84
2019-04-15 03:00:00 11.8 11 Nordeste 22 Nordeste 0 992.2 1.3 83
2019-04-15 02:00:00 12.8 10 Nordeste 20 Nordeste 0 992.2 2.3 76
2019-04-15 01:00:00 15.3 8 Norte 16 Noroeste 0 991.7 2.5 67
2019-04-15 00:00:00 17.5 9 Sudoeste 22 Sudoeste 0 990.9 2.6 58
2019-04-14 23:00:00 18.4 10 Sudoeste 22 Sudoeste 0 989.9 1.9 55
2019-04-14 22:00:00 19.5 14 Sudoeste 31 Oeste 0 989.2 1.3 51
2019-04-14 21:00:00 21.3 18 Oeste 41 Oeste 0 988.3 0.5 45
2019-04-14 20:00:00 23.3 24 Oeste 43 Oeste 0 988 -0.2 40
2019-04-14 19:00:00 24.3 24 Oeste 48 Oeste 0 987.9 -0.8 38
2019-04-14 18:00:00 25.3 29 Oeste 47 Oeste 0 987.8 -1.6 35
2019-04-14 17:00:00 25.2 26 Oeste 43 Oeste 0 988.2 -1.7 33
2019-04-14 16:00:00 25.3 23 Oeste 40 Oeste 0 988.7 -1.7 35
2019-04-14 15:00:00 23.4 17 Oeste 31 Oeste 0 989.4 -1.6 36
2019-04-14 14:00:00 23.2 17 Oeste 26 Oeste 0 989.9 -1.5 35
2019-04-14 13:00:00 20.5 10 Oeste -- -- -- 990.4 -1 33
2019-04-14 12:00:00 18.1 5 Sudoeste 12 Sur 0 991 -0.2 31
2019-04-14 11:00:00 15.3 3 Sur 8 Nordeste 0 991.4 0.4 37
2019-04-14 10:00:00 11.3 6 Nordeste 12 Nordeste 0 991.4 0.6 49
2019-04-14 09:00:00 8.2 5 Nordeste 9 Nordeste 0 991.2 0.5 60
2019-04-14 08:00:00 5.4 5 Nordeste 9 Nordeste 0 991 -0.2 69
2019-04-14 07:00:00 4.9 4 Nordeste 10 Nordeste 0 990.8 -0.4 68
2019-04-14 06:00:00 5.3 5 Nordeste 11 Nordeste 0 990.7 -0.5 66
2019-04-14 05:00:00 5.7 6 Nordeste 10 Nordeste 0 991.2 -0.2 66
2019-04-14 04:00:00 6.7 6 Nordeste 10 Nordeste 0 991.2 -0.3 59
2019-04-14 03:00:00 8.1 5 Nordeste 8 Oeste 0 991.2 -0.3 50
2019-04-14 02:00:00 9.5 3 Oeste 9 Oeste 0 991.4 0.1 40
2019-04-14 01:00:00 11 8 Sudoeste 15 Sudoeste 0 991.5 0.2 34
2019-04-14 00:00:00 11.6 9 Sudoeste 12 Sudoeste 0 991.5 0.6 34
2019-04-13 23:00:00 12.3 7 Sudoeste 10 Sudoeste 0 991.3 0.6 35
2019-04-13 22:00:00 14.2 5 Oeste 8 Oeste 0 991.3 0.4 30
2019-04-13 21:00:00 17.6 6 Sudoeste 10 Sudoeste 0 990.9 -0.2 24
2019-04-13 20:00:00 21.9 6 Sudoeste 14 Oeste 0 990.7 -0.8 24
2019-04-13 19:00:00 23.3 10 Oeste 23 Oeste 0 990.9 -1.3 18
2019-04-13 18:00:00 23.4 12 Oeste 22 Oeste 0 991.1 -- 16
2019-04-13 17:00:00 23 13 Oeste 27 Oeste 0 991.5 -2.2 16
2019-04-13 16:00:00 21.7 15 Oeste -- -- -- 992.2 -2.4 22
2019-04-13 15:00:00 -- -- -- -- -- -- -- -- --
2019-04-13 14:00:00 18.5 13 Sudoeste 25 Oeste 0 993.7 -1.7 34
2019-04-13 13:00:00 16.3 11 Sudoeste 22 Sudoeste 0 994.6 -0.7 45
2019-04-13 12:00:00 13.9 10 Sudoeste 18 Oeste 0 995.3 0.2 51
2019-04-13 11:00:00 11.4 11 Sudoeste 19 Sudoeste 0 995.4 0.5 61
2019-04-13 10:00:00 8.9 9 Sudoeste 16 Sudoeste 0 995.3 1.3 71
2019-04-13 09:00:00 6.1 2 Sudoeste 5 Sudoeste 0 995.1 1.4 84
2019-04-13 08:00:00 3.4 4 Nordeste 8 Nordeste 0 994.9 1.4 91
2019-04-13 07:00:00 3.2 0 Calma 6 Nordeste 0 994 0.3 90
2019-04-13 06:00:00 3.6 2 Norte 6 Nordeste 0 993.7 -0.1 88
2019-04-13 05:00:00 4.9 4 Norte 7 Nordeste 0 993.5 -0.3 83
2019-04-13 04:00:00 6.2 5 Nordeste 7 Nordeste 0 993.7 0.4 79
2019-04-13 03:00:00 7.1 5 Norte 7 Norte 0 993.8 1.2 76
2019-04-13 02:00:00 7.8 0 Calma 6 Sudeste 0 993.8 -- 73
2019-04-13 01:00:00 9 5 Sur 8 Oeste 0 993.3 1.7 67
2019-04-13 00:00:00 11.3 7 Sudoeste 12 Oeste 0 992.6 2 57
2019-04-12 23:00:00 -- -- -- -- -- -- -- -- --
2019-04-12 22:00:00 14 6 Oeste 14 Oeste 0 991.6 1.8 45
2019-04-12 21:00:00 16.3 9 Sudoeste 15 Oeste 0 990.6 0.7 40
2019-04-12 20:00:00 20.2 8 Oeste 21 Oeste 0 990 0 27
2019-04-12 19:00:00 21.4 14 Oeste 26 Oeste 0 989.8 -0.9 22
2019-04-12 18:00:00 21.9 13 Oeste -- -- -- 989.9 -1.4 21
2019-04-12 17:00:00 21.8 19 Oeste 30 Oeste 0 990 -1.9 22
2019-04-12 16:00:00 21.2 14 Oeste 30 Oeste 0 990.7 -1.8 27
2019-04-12 15:00:00 20 16 Oeste 28 Oeste 0 991.3 -1.8 33
2019-04-12 14:00:00 18.4 15 Oeste 27 Oeste 0 991.9 -1.3 38
2019-04-12 13:00:00 16.6 14 Sudoeste 27 Sudoeste 0 992.5 -0.5 47
2019-04-12 12:00:00 14.2 14 Sudoeste 26 Sudoeste 0 993.1 0 57
2019-04-12 11:00:00 11.9 14 Sudoeste 27 Sudoeste 0 993.2 0.3 64
2019-04-12 10:00:00 9.8 14 Sudoeste 23 Sudoeste 0 993 0.6 74
2019-04-12 09:00:00 7.2 10 Sudoeste 17 Oeste 0 993.1 0.8 84
2019-04-12 08:00:00 4.9 7 Sudoeste 12 Oeste 0 992.9 0.7 88
2019-04-12 07:00:00 5 6 Sudoeste 10 Sudoeste 0 992.4 0.2 89
2019-04-12 06:00:00 5.6 2 Norte 12 Sudoeste 0 992.3 0.1 84
2019-04-12 05:00:00 6.5 5 Sudoeste 19 Sudoeste 0 992.2 -0.1 79
2019-04-12 04:00:00 7.3 12 Sudoeste 21 Sudoeste 0 992.2 0.3 76
2019-04-12 03:00:00 8.3 12 Sudoeste 23 Sudoeste 0 992.2 0.6 72
2019-04-12 02:00:00 8.8 11 Sudoeste 23 Sudoeste 0 992.3 1.4 72
2019-04-12 01:00:00 9.7 17 Sudoeste 26 Sudoeste 0 991.9 1.4 66
2019-04-12 00:00:00 10.5 12 Sudoeste 29 Noroeste 0 991.6 2 61
2019-04-11 23:00:00 12.9 17 Noroeste 31 Oeste 0 990.9 2.3 52
2019-04-11 22:00:00 14.3 17 Oeste 28 Oeste 0 990.5 2 49
2019-04-11 21:00:00 16 12 Oeste 29 Noroeste 0 989.6 1.1 44
2019-04-11 20:00:00 17.4 12 Oeste 33 Oeste 0 988.6 0.2 38
2019-04-11 19:00:00 18 20 Oeste 39 Oeste 0 988.5 -0.3 38
2019-04-11 18:00:00 19 25 Oeste 42 Oeste 0 988.5 -0.9 35
2019-04-11 17:00:00 20.1 22 Oeste 40 Oeste 0 988.4 -1.7 32
2019-04-11 16:00:00 19.6 16 Oeste 34 Oeste 0 988.8 -1.9 29
2019-04-11 15:00:00 19.7 15 Oeste 30 Oeste 0 989.4 -1.9 27
2019-04-11 14:00:00 17.8 16 Oeste 31 Oeste 0 990.1 -1.3 32
2019-04-11 13:00:00 17.1 16 Oeste 31 Sudoeste 0 990.7 -0.6 39
2019-04-11 12:00:00 15.1 14 Sudoeste 26 Sudoeste 0 991.3 0.1 51
2019-04-11 11:00:00 12.6 15 Oeste 23 Oeste 0 991.4 0.5 61
2019-04-11 10:00:00 10.4 13 Oeste 21 Oeste 0 991.3 0.9 70
2019-04-11 09:00:00 8 11 Sudoeste 21 Sudoeste 0 991.2 0.8 78
2019-04-11 08:00:00 5.6 6 Sur 15 Sudoeste 0 990.9 0.7 86
2019-04-11 07:00:00 6 10 Sudoeste 21 Sudoeste 0 990.4 0.4 84
2019-04-11 06:00:00 5.5 8 Sudoeste 17 Sudoeste 0 990.4 0.5 86
2019-04-11 05:00:00 6.4 9 Sudoeste 16 Sudoeste 0 990.2 0.3 83
2019-04-11 04:00:00 6.6 9 Sudoeste 19 Sudoeste 0 990 0.5 83
2019-04-11 03:00:00 7.1 12 Sudoeste 21 Sudoeste 0 989.9 0.8 81
2019-04-11 02:00:00 7.5 8 Sudoeste 18 Sudoeste 0 989.9 0.9 83
2019-04-11 01:00:00 8.4 7 Sudoeste 10 Sudoeste 0 989.5 0.9 79
2019-04-11 00:00:00 9.7 8 Sudoeste 10 Sudoeste 0 989.1 1.7 74
2019-04-10 23:00:00 10.6 3 Sudoeste 9 Nordeste 0 989 2 71
2019-04-10 22:00:00 11.2 2 Sur 12 Noroeste 0 988.6 2.3 67
2019-04-10 21:00:00 13.7 6 Noroeste 19 Noroeste 0 987.4 1.5 52
2019-04-10 20:00:00 15.4 12 Noroeste 29 Noroeste 0 987 1.1 47
2019-04-10 19:00:00 17.3 9 Oeste 22 Oeste 0 986.3 0.1 37
2019-04-10 18:00:00 17 7 Noroeste 20 Norte 0 985.9 -0.3 38
2019-04-10 17:00:00 16.2 14 Norte 36 Norte 0 985.9 -0.8 35
2019-04-10 16:00:00 19.8 11 Oeste 25 Oeste 0 986.2 -1 33
2019-04-10 15:00:00 18.2 10 Oeste 26 Oeste 0 986.2 -1.4 41
2019-04-10 14:00:00 17 10 Sudoeste 22 Oeste 0 986.7 -1.1 49
2019-04-10 13:00:00 15.4 11 Oeste 22 Oeste 0 987.2 -0.2 58
2019-04-10 12:00:00 13.2 10 Oeste 19 Oeste 0 987.6 0.3 69
2019-04-10 11:00:00 11.6 7 Sudoeste 15 Sudoeste 0 987.8 1.1 73
2019-04-10 10:00:00 9.4 8 Oeste 15 Oeste 0 987.4 0.9 79
2019-04-10 09:00:00 8.1 5 Sudoeste 17 Sudoeste 0 987.3 1 85
2019-04-10 08:00:00 6.9 8 Sudoeste 17 Sudoeste 0 986.7 0.6 90
2019-04-10 07:00:00 7.2 8 Oeste 14 Oeste 0 986.5 0.6 90
2019-04-10 06:00:00 6.5 5 Sur 12 Sudoeste 0 986.3 0.3 91
2019-04-10 05:00:00 7.3 7 Sudoeste 15 Oeste 0 986.1 -0.1 89
2019-04-10 04:00:00 7.7 9 Oeste 13 Oeste 0 985.9 -0.5 88
2019-04-10 03:00:00 8.2 6 Sudoeste 12 Sudoeste 0 986 -0.4 85
2019-04-10 02:00:00 9 6 Sudoeste 14 Sudoeste 0 986.2 -0.2 81
2019-04-10 01:00:00 9.7 7 Sudoeste 17 Oeste 0 986.4 -- 78
2019-04-10 00:00:00 11.2 12 Sudoeste 17 Sudoeste 0.4 986.4 0.8 73
2019-04-09 23:00:00 12.7 5 Sur 24 Este 0 986.4 2 63
2019-04-09 22:00:00 13.5 11 Sudeste 24 Este 0 -- -- 57
2019-04-09 21:00:00 14.4 6 Este 20 Este 0 985.6 1.8 51
2019-04-09 20:00:00 15.8 10 Oeste 20 Oeste 0 984.4 0.5 48
2019-04-09 19:00:00 18.8 13 Oeste 28 Oeste 0 983.7 -0.7 35
2019-04-09 18:00:00 19.4 17 Oeste 37 Oeste 0 983.8 -1.2 33
2019-04-09 17:00:00 19.1 20 Oeste 42 Oeste 0 983.9 -1.8 35
2019-04-09 16:00:00 19.1 22 Oeste 41 Oeste 0 984.4 -1.8 32
2019-04-09 15:00:00 18.3 23 Oeste 39 Oeste 0 985 -1.5 38
2019-04-09 14:00:00 17.5 19 Oeste 40 Oeste 0 985.7 -1.1 47
2019-04-09 13:00:00 16.7 23 Oeste 39 Oeste 0 986.2 -0.8 49
2019-04-09 12:00:00 15.4 23 Oeste 43 Oeste 0 986.5 -0.6 58
2019-04-09 11:00:00 13.6 15 Oeste 26 Oeste 0 986.8 -0.2 71
2019-04-09 10:00:00 11.3 10 Oeste 19 Sudoeste 0 987 -0.3 83
2019-04-09 09:00:00 9.3 11 Sudoeste 15 Sudoeste 0 987.1 0.2 92
2019-04-09 08:00:00 8.8 8 Oeste 22 Oeste 1.6 987 0.2 92
2019-04-09 07:00:00 9 11 Sudoeste 30 Sudoeste 2.2 987.3 0.9 92
2019-04-09 06:00:00 10.6 14 Oeste 23 Oeste 0 986.9 0.2 78
2019-04-09 05:00:00 10.1 6 Sudoeste 11 Oeste 0 986.8 -0.1 89
2019-04-09 04:00:00 9.7 5 Sur 15 Noroeste 0 986.4 -0.4 91
2019-04-09 03:00:00 9.5 5 Sudoeste 9 Sudoeste 0.2 986.7 -0.2 90
2019-04-09 02:00:00 10 4 Sur 13 Noroeste 1 986.9 0.1 86
2019-04-09 01:00:00 10 8 Noroeste 12 Noroeste 0 986.8 0.3 82
2019-04-09 00:00:00 11 6 Sudoeste 9 Sudoeste 0 986.9 0.8 79
2019-04-08 23:00:00 12.1 6 Sudoeste 14 Oeste 0 986.8 0.9 77
2019-04-08 22:00:00 13 6 Sudoeste 16 Sur 0 986.5 0.8 66
2019-04-08 21:00:00 13.9 11 Sur 36 Oeste 0 986.1 0.3 67
2019-04-08 20:00:00 17.2 6 Sudoeste 16 Sudoeste 0 985.9 -0.5 53
2019-04-08 19:00:00 18.1 8 Sudoeste 20 Noroeste 0 985.7 -1.2 51
2019-04-08 18:00:00 20 11 Oeste 26 Noroeste 0 985.8 -1.8 44
2019-04-08 17:00:00 19.8 16 Oeste 27 Oeste 0 986.4 -1.7 45
2019-04-08 16:00:00 19.4 16 Oeste 30 Oeste 0 986.9 -1.8 50
2019-04-08 15:00:00 18.1 14 Oeste 26 Oeste 0 987.6 -1.4 54
2019-04-08 14:00:00 16.8 13 Oeste 27 Oeste 0 988.1 -0.9 59
2019-04-08 13:00:00 15.2 15 Oeste 25 Oeste 0 988.7 -0.3 60
2019-04-08 12:00:00 14.6 10 Oeste 17 Oeste 0 989 -0.2 60
2019-04-08 11:00:00 11.5 3 Sudoeste 8 Este 0 989 0.1 72
2019-04-08 10:00:00 8.7 2 Este 7 Sudoeste 0 989 0.1 84
2019-04-08 09:00:00 7.4 7 Sudoeste 10 Sudoeste 0 989.2 0.4 88
2019-04-08 08:00:00 6.5 2 Nordeste 9 Nordeste 0 988.9 0 87
2019-04-08 07:00:00 6.2 4 Nordeste 10 Norte 0 988.9 -0.1 87
2019-04-08 06:00:00 6 6 Nordeste 11 Norte 0 988.8 -0.5 88
2019-04-08 05:00:00 6.2 6 Nordeste 9 Nordeste 0 988.9 -0.4 88
2019-04-08 04:00:00 6.5 6 Nordeste 10 Nordeste 0 989 -0.3 86
2019-04-08 03:00:00 7.1 7 Nordeste -- -- -- 989.3 0.2 84
2019-04-08 02:00:00 7.4 8 Norte 12 Norte 0 989.3 0.3 82
2019-04-08 01:00:00 7.3 8 Nordeste 12 Nordeste 0 989.3 0.4 79
2019-04-08 00:00:00 7.8 0 Calma 7 Sudoeste 0 989.1 1 73
2019-04-07 23:00:00 10.1 4 Oeste 10 Sudoeste 0 989 1.9 62
2019-04-07 22:00:00 10.9 8 Sudoeste 10 Sur 0 988.9 2.7 60
2019-04-07 21:00:00 12.7 4 Oeste 14 Oeste 0 988.1 2.7 54
2019-04-07 20:00:00 15.6 11 Oeste 30 Oeste 0 987.1 2.1 42
2019-04-07 19:00:00 16.6 19 Oeste 39 Oeste 0 986.2 1.6 39
2019-04-07 18:00:00 17.6 19 Oeste 36 Oeste 0 985.4 0.9 37
2019-04-07 17:00:00 17.7 17 Oeste 37 Oeste 0 985 0.5 39
2019-04-07 16:00:00 17.4 21 Oeste 39 Oeste 0 984.6 0.2 40
2019-04-07 15:00:00 16.4 21 Oeste 38 Oeste 0 984.5 0.4 46
2019-04-07 14:00:00 15.6 18 Oeste 39 Oeste 0 984.5 0.9 52
2019-04-07 13:00:00 14.6 21 Oeste 39 Oeste 0 984.4 1.2 54
2019-04-07 12:00:00 13.1 17 Oeste 33 Noroeste 0 984.1 1.6 60
2019-04-07 11:00:00 11 22 Oeste 33 Oeste 0 983.6 2 71
2019-04-07 10:00:00 8.2 15 Oeste 26 Oeste 0 983.2 2.3 87
2019-04-07 09:00:00 7 11 Noroeste 16 Noroeste 0 982.5 2 92
2019-04-07 08:00:00 4.6 6 Sudoeste 10 Sur 0 981.6 1.6 97
2019-04-07 07:00:00 4.8 4 Sur 8 Sur 0 980.9 0.8 95
2019-04-07 06:00:00 5.9 5 Nordeste 6 Nordeste 0 980.5 0.2 95
2019-04-07 05:00:00 6.9 3 Oeste 6 Oeste 0 980 -0.4 91
2019-04-07 04:00:00 7.2 4 Norte 8 Norte 0 980.1 -0.4 92
2019-04-07 03:00:00 7.3 3 Noroeste 8 Nordeste 0 980.3 -0.1 92
2019-04-07 02:00:00 6.9 2 Oeste 6 Este 0 980.4 0 91
2019-04-07 01:00:00 6.9 3 Norte 8 Nordeste 0 980.5 0.4 90
2019-04-07 00:00:00 7.4 4 Norte 13 Noroeste 0 980.4 0.5 86
2019-04-06 23:00:00 8.1 4 Noroeste 12 Sudoeste 0 980.4 2.5 84
2019-04-06 22:00:00 8.5 8 Sur 37 Sudoeste 0 980.1 2.5 83
2019-04-06 21:00:00 10.6 22 Sudoeste 39 Oeste 0 979.9 2.4 65
2019-04-06 20:00:00 13.4 3 Sudeste 10 Sur 0 977.9 0.3 46
2019-04-06 19:00:00 16 8 Oeste 15 Sudoeste 0 977.6 -0.4 37
2019-04-06 18:00:00 16.1 9 Oeste 18 Oeste 0 977.5 -0.8 38
2019-04-06 17:00:00 15 6 Oeste 15 Noroeste 0 977.6 -0.8 41
2019-04-06 16:00:00 14.2 10 Sudoeste 19 Oeste 0 978 -0.9 46
2019-04-06 15:00:00 13.8 9 Oeste 24 Sudoeste 0 978.3 -0.6 50
2019-04-06 14:00:00 13.6 13 Noroeste 22 Noroeste 0 978.4 0 58
2019-04-06 13:00:00 12 14 Oeste 28 Sudoeste 0 978.9 1.2 57
2019-04-06 12:00:00 10.1 14 Sudoeste 25 Sudoeste 0 978.9 1.7 69
2019-04-06 11:00:00 8.8 14 Sudoeste 26 Sudoeste 0 978.4 1.9 77
2019-04-06 10:00:00 7.9 17 Sudoeste 26 Sur 0 977.7 1.4 84
2019-04-06 09:00:00 7 8 Sur 16 Sur 0 977.2 1.1 92
2019-04-06 08:00:00 6.4 6 Sudoeste 12 Sudoeste 1.2 976.5 0.5 93
2019-04-06 07:00:00 6.5 8 Sudoeste 14 Sudoeste 0 976.3 0.4 93
2019-04-06 06:00:00 6.7 6 Sudoeste 18 Sudoeste 0 976.1 0.2 91
2019-04-06 05:00:00 6.5 11 Sudoeste 24 Oeste 0 976 0.5 91
2019-04-06 04:00:00 6.7 19 Oeste 30 Sudoeste 0 975.9 1 86
2019-04-06 03:00:00 6.9 10 Sudoeste -- -- -- 975.9 1.2 94
2019-04-06 02:00:00 7.2 12 Sudoeste 27 Oeste 0.6 975.5 0.3 91
2019-04-06 01:00:00 9 5 Nordeste 14 Nordeste 0.6 974.9 0.2 95
2019-04-06 00:00:00 9.2 6 Norte 13 Nordeste 0 974.7 -0.2 94
2019-04-05 23:00:00 9.3 4 Norte 11 Nordeste 0 975.2 -0.2 93
2019-04-05 22:00:00 9.5 7 Norte 14 Nordeste 0.2 974.7 -1 92
2019-04-05 21:00:00 9.6 5 Este 10 Sudeste 0.4 974.9 0.5 93
2019-04-05 20:00:00 9.6 4 Sudoeste 20 Sudoeste 2 975.4 0.7 91
2019-04-05 19:00:00 10.9 10 Sur 36 Sudoeste 2 975.7 0.1 83
2019-04-05 18:00:00 14.1 16 Nordeste 29 Nordeste 0 974.4 -1.9 60
2019-04-05 17:00:00 14.9 17 Este 28 Este 0 974.7 -2.5 60
2019-04-05 16:00:00 16.1 17 Este 23 Este 0 975.6 -2.3 47
2019-04-05 15:00:00 15.6 9 Este 18 Este 0 976.3 -2.2 52
2019-04-05 14:00:00 13.7 11 Este 21 Este 0 977.2 -1.5 62
2019-04-05 13:00:00 12.8 13 Nordeste 24 Nordeste 0 977.9 -1.1 68
2019-04-05 12:00:00 10.5 14 Nordeste 26 Nordeste 0 978.5 -0.3 70
2019-04-05 11:00:00 7.3 9 Nordeste 18 Nordeste 0.2 978.7 0.2 84
2019-04-05 10:00:00 5.9 5 Nordeste 13 Nordeste 0.4 979 0.8 83
2019-04-05 09:00:00 4.8 7 Nordeste 17 Nordeste 0.6 978.8 0.4 81
2019-04-05 08:00:00 4.8 10 Nordeste 19 Nordeste 0 978.5 -0.3 65
2019-04-05 07:00:00 4.2 12 Nordeste 21 Nordeste 0 978.2 -0.8 65
2019-04-05 06:00:00 3.7 13 Nordeste -- -- -- 978.4 -- 66
2019-04-05 05:00:00 3.4 14 Nordeste 22 Nordeste 0 978.8 -- 68
2019-04-05 04:00:00 3.5 10 Nordeste 16 Nordeste 0 979 -0.8 66
2019-04-05 03:00:00 3.9 11 Nordeste 18 Nordeste 0 -- -- 64
2019-04-05 02:00:00 -- -- -- -- -- -- -- -- --
2019-04-05 01:00:00 4.7 6 Nordeste 13 Nordeste 0 979.8 0.2 65
2019-04-05 00:00:00 5.6 0 Calma 5 Sur 0 979.9 1 58
2019-04-04 23:00:00 6.7 3 Sur 12 Sur 0 979.8 0.6 48
2019-04-04 22:00:00 7.7 4 Sudeste 9 Norte 0 979.6 0.8 51
2019-04-04 21:00:00 10.5 6 Norte 9 Norte 0 978.9 0 39
2019-04-04 20:00:00 13 4 Sudoeste 21 Oeste 0 979.2 0 30
2019-04-04 19:00:00 15.4 10 Oeste 28 Oeste 0 978.8 -0.6 24
2019-04-04 18:00:00 15.7 11 Oeste 32 Noroeste 0 978.9 -1.1 25
2019-04-04 17:00:00 15.7 19 Oeste 35 Noroeste 0 979.2 -1 25
2019-04-04 16:00:00 15.4 19 Oeste 42 Noroeste 0 979.4 -1.3 25
2019-04-04 15:00:00 14 23 Oeste 45 Noroeste 0 980 -1.1 27
2019-04-04 14:00:00 13.3 21 Oeste 45 Oeste 0 980.2 -1.1 35
2019-04-04 13:00:00 12.5 21 Oeste 38 Oeste 0 980.7 -0.3 41
2019-04-04 12:00:00 11.3 21 Oeste 36 Oeste 0 981.1 0.4 42
2019-04-04 11:00:00 8.9 13 Oeste 24 Oeste 0 981.3 1.2 54
2019-04-04 10:00:00 6.8 14 Oeste 24 Noroeste 0 981 1.8 61
2019-04-04 09:00:00 4.7 9 Oeste 16 Oeste 0 980.7 1.8 68
2019-04-04 08:00:00 2.5 6 Sur 26 Oeste 0 980.1 0.8 74
2019-04-04 07:00:00 2.4 10 Oeste 19 Oeste 0 979.2 -0.2 73
2019-04-04 06:00:00 2.9 10 Oeste 22 Sudoeste 0 978.9 -0.9 69
2019-04-04 05:00:00 3 5 Oeste 26 Sudoeste 0 979.3 -0.8 68
2019-04-04 04:00:00 3.1 16 Sudoeste 23 Sudoeste 0 979.4 -1 74
2019-04-04 03:00:00 3.5 9 Sudoeste 20 Oeste 0 979.8 -0.6 75
2019-04-04 02:00:00 4.6 13 Sudoeste 22 Oeste 0 980.1 0 75
2019-04-04 01:00:00 5.8 12 Sudoeste 27 Oeste 0 980.4 0.7 70
2019-04-04 00:00:00 7.4 15 Oeste 40 Oeste 0 980.4 0.5 59
2019-04-03 23:00:00 8.2 24 Oeste 36 Oeste 0 980.1 0.5 59
2019-04-03 22:00:00 8.3 16 Oeste 26 Sudoeste 0 979.7 0.1 60
2019-04-03 21:00:00 7.7 13 Sudoeste 28 Sudoeste 0 979.9 -0.1 83
2019-04-03 20:00:00 8.9 16 Sudoeste 27 Sudoeste 0 979.6 -0.7 74
2019-04-03 19:00:00 9.5 9 Sudoeste 23 Sur 0.2 979.6 -0.9 69
2019-04-03 18:00:00 9.9 10 Sudoeste 22 Oeste 0 980 -0.5 71
2019-04-03 17:00:00 10.9 16 Oeste 30 Oeste 0 980.3 -1 66
2019-04-03 16:00:00 12 18 Oeste 30 Oeste 0 980.5 -1.5 59
2019-04-03 15:00:00 13.4 10 Oeste 21 Sudoeste 0 980.5 -2.5 63
2019-04-03 14:00:00 13.1 10 Sudoeste 21 Sudoeste 0 981.3 -2.2 68
2019-04-03 13:00:00 12.8 9 Sudoeste 19 Sur 0 982 -1.8 69
2019-04-03 12:00:00 12.5 8 Sur 17 Sudoeste 0 983 -0.9 72
2019-04-03 11:00:00 11.4 10 Sudoeste 17 Sudoeste 0 983.5 -0.6 75
2019-04-03 10:00:00 10 7 Sudoeste 16 Sudoeste 0 983.8 -0.5 81
2019-04-03 09:00:00 9.5 5 Sudoeste 9 Sudoeste 0 983.9 -0.7 86
2019-04-03 08:00:00 8.5 4 Oeste 12 Sudoeste 0 984.1 -0.9 90
2019-04-03 07:00:00 9.2 4 Sudoeste 7 Nordeste 0 984.3 -1.5 88
2019-04-03 06:00:00 10.3 5 Noroeste 10 Este 0 984.6 -2 85
2019-04-03 05:00:00 10.6 5 Nordeste 10 Nordeste 0 985 -2.3 82
2019-04-03 04:00:00 10.8 8 Nordeste 12 Nordeste 0 985.8 -1.8 79
2019-04-03 03:00:00 11.8 5 Nordeste 10 Nordeste 0 986.6 -1.3 75
2019-04-03 02:00:00 11.7 0 Calma 8 Oeste 0 987.3 -0.7 74
2019-04-03 01:00:00 12.2 6 Sudoeste 11 Sudoeste 0 987.6 -0.2 70
2019-04-03 00:00:00 12 5 Sudoeste 13 Sur 0 987.9 0.7 68
2019-04-02 23:00:00 12.9 9 Sudoeste 19 Sudoeste 0 988 1 63
2019-04-02 22:00:00 13.7 7 Sudoeste 13 Sudoeste 0 987.8 0.9 61
2019-04-02 21:00:00 16 8 Sudoeste 12 Sudoeste 0 987.2 0 48
2019-04-02 20:00:00 18.9 8 Oeste 21 Sudoeste 0 987 -0.9 38
2019-04-02 19:00:00 20.3 9 Sur 21 Sur 0 986.9 -1.8 43
2019-04-02 18:00:00 20.8 14 Sudoeste 27 Sur 0 987.2 -2.1 44
2019-04-02 17:00:00 19.9 13 Sur 23 Sudoeste 0 987.9 -2.2 41
2019-04-02 16:00:00 17.1 12 Sudoeste 27 Sudoeste 0 988.7 -- 58
2019-04-02 15:00:00 18.6 14 Sudoeste 24 Oeste 0 989.3 -2.1 56
2019-04-02 14:00:00 18.9 12 Sudoeste -- -- -- 990.1 -1.5 56
2019-04-02 13:00:00 -- -- -- -- -- -- -- -- --
2019-04-02 12:00:00 16.6 8 Sudoeste 15 Sudoeste 0 991.4 0 61
2019-04-02 11:00:00 13.5 7 Sur 12 Sudoeste 0 991.6 0.4 70
2019-04-02 10:00:00 10.3 2 Sudoeste 6 Sudoeste 0 991.7 0.9 76
2019-04-02 09:00:00 8.9 2 Sudoeste 4 Sudeste 0 991.4 0.6 81
2019-04-02 08:00:00 8.2 3 Noroeste 6 Sudoeste 0 991.2 0.2 82
2019-04-02 07:00:00 8.2 2 Sur 6 Nordeste 0 990.8 -0.6 84
2019-04-02 06:00:00 7.4 3 Nordeste 5 Este 0 990.8 -0.8 85
2019-04-02 05:00:00 7.5 0 Calma 4 Sudoeste 0 991 -0.8 83
2019-04-02 04:00:00 9 2 Sudoeste 5 Noroeste 0 991.4 -0.6 77
2019-04-02 03:00:00 10.4 3 Noroeste 9 Oeste 0 991.6 -0.5 70
2019-04-02 02:00:00 10.9 4 Oeste 5 Oeste 0 991.8 -0.3 72
2019-04-02 01:00:00 12.2 4 Sudoeste 6 Oeste 0 992 0.2 66
2019-04-02 00:00:00 12.6 4 Oeste 10 Oeste 0 992.1 0.9 61
2019-04-01 23:00:00 12.8 5 Oeste 8 Sur 0 992.1 1.5 67
2019-04-01 22:00:00 13.6 6 Sur 11 Sur 0 991.8 1.4 64
2019-04-01 21:00:00 15.1 5 Noroeste 9 Noroeste 0 991.2 0.8 57
2019-04-01 20:00:00 16.1 4 Oeste 12 Oeste 0 990.6 0.1 46
2019-04-01 19:00:00 16.4 8 Oeste 19 Sudoeste 0 990.4 -0.6 50
2019-04-01 18:00:00 17.1 10 Sudoeste 23 Oeste 0 990.4 -1.2 52
2019-04-01 17:00:00 18.3 10 Oeste 21 Oeste 0 990.5 -1.9 47
2019-04-01 16:00:00 17.4 9 Oeste 20 Noroeste 0 991 -1.6 52
2019-04-01 15:00:00 16.7 10 Sudoeste 21 Oeste 0 991.6 -1.3 52
2019-04-01 14:00:00 15 9 Sudoeste 21 Sudoeste 0 992.4 -0.4 59
2019-04-01 13:00:00 14.9 8 Sudoeste 17 Sudoeste 0 992.6 0.4 65
2019-04-01 12:00:00 12.9 8 Sudoeste 14 Oeste 0 992.9 0.9 78
2019-04-01 11:00:00 11.3 8 Sudoeste 12 Sudoeste 0 992.8 1.2 89
2019-04-01 10:00:00 10.5 5 Sudoeste 10 Sudoeste 0 992.2 0.9 93
2019-04-01 09:00:00 9.5 6 Sudoeste 8 Sudoeste 0 992 0.8 96
2019-04-01 08:00:00 9.2 5 Sudoeste 8 Sudoeste 0 991.6 0.4 96
2019-04-01 07:00:00 9.3 5 Sur 9 Sur 0 991.3 -0.3 96
2019-04-01 06:00:00 9.7 7 Sur 10 Sur 0 991.2 -0.6 94
2019-04-01 05:00:00 9.7 2 Noroeste 11 Oeste 0 991.2 -0.6 95
2019-04-01 04:00:00 9.9 6 Sur 9 Sudoeste 0 991.6 -0.1 94
2019-04-01 03:00:00 10.1 5 Sudoeste 9 Sudoeste 0 991.8 0.1 91
2019-04-01 02:00:00 10.2 8 Sudoeste 11 Sudoeste 0 991.8 0 89
2019-04-01 01:00:00 10.5 5 Sudoeste 10 Sudoeste 0 991.7 0.2 86
2019-04-01 00:00:00 11.2 4 Sudoeste 8 Sudoeste 0 991.7 0.4 78
2019-03-31 23:00:00 11.5 6 Sur 9 Sur 0 991.8 0.7 72
2019-03-31 22:00:00 12.3 3 Noroeste 7 Oeste 0 991.5 0.4 66
2019-03-31 21:00:00 13.1 5 Oeste 10 Oeste 0 991.3 0.2 62
2019-03-31 20:00:00 13.8 8 Oeste 15 Oeste 0 991.1 -0.2 58
2019-03-31 19:00:00 14.7 11 Oeste 18 Oeste 0 991.1 -0.8 63
2019-03-31 18:00:00 15.7 11 Oeste 17 Oeste 0 991.1 -1.8 59
2019-03-31 17:00:00 16.1 6 Norte 13 Norte 0 991.3 -2.2 55
2019-03-31 16:00:00 14.9 5 Oeste 12 Oeste 0 991.9 -2.1 60
2019-03-31 15:00:00 14.6 5 Sudoeste 11 Sudoeste 0 992.9 -1.5 63
2019-03-31 14:00:00 14.2 3 Nordeste 14 Este 0 993.5 -1 62
2019-03-31 13:00:00 13.2 7 Este 15 Nordeste 0 994 -0.5 67
2019-03-31 12:00:00 11.5 5 Este 12 Norte 0 994.4 0.1 74
2019-03-31 11:00:00 9.2 7 Nordeste 14 Nordeste 0 994.5 -- 81
2019-03-31 10:00:00 7 8 Nordeste 14 Norte 0 994.5 0.5 86
2019-03-31 09:00:00 5.6 6 Nordeste -- -- -- 994.3 -0.1 90
2019-03-31 08:00:00 -- -- -- -- -- -- -- -- --
2019-03-31 07:00:00 4.6 6 Nordeste 11 Norte 0 994 -1.6 92
2019-03-31 06:00:00 4.8 5 Nordeste 12 Nordeste 0 994.4 -1.5 91
2019-03-31 05:00:00 5.3 7 Nordeste 11 Nordeste 0 994.9 -1.8 89
2019-03-31 03:00:00 6.4 7 Nordeste 15 Nordeste 0 995.9 -1.9 86
2019-03-31 01:00:00 7.4 7 Nordeste 13 Nordeste 0 996.7 -1 83
2019-03-31 00:00:00 8 6 Norte 10 Nordeste 0 997.2 0.3 81
2019-03-30 23:00:00 8.8 6 Nordeste 13 Norte 0 997.8 2.1 78
2019-03-30 22:00:00 10.1 6 Norte 10 Nordeste 0 997.7 2.7 72
2019-03-30 21:00:00 11.2 3 Oeste 14 Sur 0 996.9 2.2 68
2019-03-30 20:00:00 12.8 7 Sudoeste 19 Sur 0 995.7 0.8 63
2019-03-30 19:00:00 16 11 Sur 23 Sudeste 0 995 -0.7 50
2019-03-30 18:00:00 18.6 13 Sudeste 24 Sudeste 0 994.7 -1.9 37
2019-03-30 17:00:00 19.8 6 Sudeste 16 Este 0 994.9 -2.6 31
2019-03-30 16:00:00 19.9 9 Sudeste 16 Sur 0 995.7 -2.7 32
2019-03-30 15:00:00 19 8 Este 15 Este 0 996.6 -2.7 35
2019-03-30 14:00:00 18.1 6 Este 18 Nordeste 0 997.5 -2.5 36
2019-03-30 13:00:00 17.1 7 Este 16 Este 0 998.4 -2.3 40
2019-03-30 12:00:00 15.8 7 Sudeste 17 Este 0 999.3 -1.6 44
2019-03-30 11:00:00 13.9 5 Norte 14 Nordeste 0 1000 -0.8 53
2019-03-30 10:00:00 11.1 6 Nordeste 15 Nordeste 0 1000.7 0.1 67
2019-03-30 09:00:00 8 9 Nordeste 14 Nordeste 0 1000.9 0.2 72
2019-03-30 08:00:00 5.1 5 Nordeste 13 Nordeste 0 1000.8 0 80
2019-03-30 07:00:00 3.4 9 Nordeste 14 Nordeste 0 1000.6 -0.5 85
2019-03-30 06:00:00 3.7 8 Nordeste 14 Nordeste 0 1000.7 -0.8 85
2019-03-30 05:00:00 4.2 8 Nordeste 12 Norte 0 1000.8 -0.9 84
2019-03-30 04:00:00 5 6 Nordeste 10 Nordeste 0 1001.1 -0.9 81
2019-03-30 03:00:00 5.8 4 Nordeste 13 Nordeste 0 1001.5 -0.6 76
2019-03-30 02:00:00 6.4 7 Norte 14 Nordeste 0 1001.7 -0.5 72
2019-03-30 01:00:00 6.9 9 Nordeste 12 Nordeste 0 1002 0.1 67
2019-03-30 00:00:00 8.1 7 Nordeste 10 Nordeste 0 1002.1 0.6 64
2019-03-29 23:00:00 8.8 4 Norte 11 Nordeste 0 1002.2 1.2 66
2019-03-29 22:00:00 10.2 8 Nordeste 14 Norte 0 1001.9 1.5 58
2019-03-29 21:00:00 11.3 8 Sudeste 14 Sudeste 0 1001.5 1.6 51
2019-03-29 20:00:00 13 9 Sur 19 Sur 0 1001 0.9 46
2019-03-29 19:00:00 15.6 10 Sur 24 Sur 0 1000.4 0 40
2019-03-29 18:00:00 17.9 8 Sudeste 17 Sudeste 0 999.9 -1.2 34
2019-03-29 17:00:00 17.8 12 Sudeste 20 Sudeste 0 1000.1 -1.9 35
2019-03-29 16:00:00 19.9 7 Sudeste 22 Sudeste 0 1000.4 -2.4 31
2019-03-29 15:00:00 20.1 8 Sur 18 Sudoeste 0 1001.1 -2.2 29
2019-03-29 14:00:00 19.5 5 Sur 17 Nordeste 0 1002 -1.9 28
2019-03-29 13:00:00 18.5 5 Oeste 15 Sudoeste 0 1002.8 -1.3 28
2019-03-29 12:00:00 17.7 5 Sudeste 12 Norte 0 1003.3 -0.8 33
2019-03-29 11:00:00 15.1 6 Nordeste 14 Este 0 1003.9 -0.2 44
2019-03-29 10:00:00 12 8 Nordeste 15 Nordeste 0 1004.1 0.2 55
2019-03-29 09:00:00 6.8 8 Nordeste 16 Nordeste 0 1004.1 0.6 72
2019-03-29 08:00:00 5.4 9 Nordeste 16 Nordeste 0 1004.1 0.6 77
2019-03-29 07:00:00 4.1 10 Nordeste 16 Nordeste 0 1003.9 0.5 79
2019-03-29 06:00:00 4.4 10 Nordeste 17 Nordeste 0 1003.5 -0.2 78
2019-03-29 05:00:00 5 11 Nordeste 16 Nordeste 0 1003.5 -0.1 75
2019-03-29 04:00:00 5.9 10 Nordeste 16 Nordeste 0 1003.4 -0.3 72
2019-03-29 03:00:00 6.3 10 Nordeste 15 Nordeste 0 1003.7 0.1 69
2019-03-29 02:00:00 6.7 10 Nordeste 17 Nordeste 0 1003.6 0.1 66
2019-03-29 01:00:00 7.3 9 Nordeste 20 Nordeste 0 1003.7 0.6 62
2019-03-29 00:00:00 8.1 10 Nordeste 18 Nordeste 0 1003.6 1.1 59
2019-03-28 23:00:00 8.8 10 Nordeste 16 Nordeste 0 1003.5 1.9 58
2019-03-28 22:00:00 10.9 8 Nordeste 13 Nordeste 0 1003.1 2.1 46
2019-03-28 21:00:00 12.3 4 Sudoeste 16 Sudeste 0 1002.5 1.9 37
2019-03-28 20:00:00 13.8 9 Sur 22 Sur 0 1001.6 0.8 35
2019-03-28 19:00:00 17 10 Sur 22 Sur 0 1001 -0.3 32
2019-03-28 18:00:00 19.7 5 Oeste 11 Oeste 0 1000.6 -1.2 27
2019-03-28 17:00:00 19.6 5 Sudoeste 15 Sudoeste 0 1000.8 -1.9 29
2019-03-28 16:00:00 19.3 9 Sudoeste 20 Sudoeste 0 1001.3 -2.5 31
2019-03-28 15:00:00 18.5 9 Oeste 22 Oeste 0 1001.8 -2.7 34
2019-03-28 14:00:00 17 12 Sudoeste 23 Sudoeste 0 1002.7 -2.2 38
2019-03-28 13:00:00 15.5 6 Oeste 18 Oeste 0 1003.8 -1.4 44
2019-03-28 12:00:00 13.6 8 Sudoeste 17 Sudoeste 0 1004.5 -0.7 48
2019-03-28 11:00:00 11.6 10 Sudoeste 19 Sudoeste 0 1004.9 -0.1 54
2019-03-28 10:00:00 9.6 8 Sur 17 Sur 0 1005.2 0.7 61
2019-03-28 09:00:00 7.3 3 Sur 12 Este 0 1005.2 1.1 71
2019-03-28 08:00:00 4.7 7 Nordeste 12 Nordeste 0 1005 1.4 83
2019-03-28 07:00:00 3.2 6 Nordeste 11 Nordeste 0 1004.5 1.1 89
2019-03-28 06:00:00 3.9 6 Norte 10 Nordeste 0 1004.1 0.9 88
2019-03-28 05:00:00 4.7 5 Nordeste -- -- -- 1003.6 0.4 86
2019-03-28 04:00:00 5.6 7 Norte 10 Norte 0 1003.4 0.2 83
2019-03-28 03:00:00 6.3 6 Nordeste 10 Nordeste 0 1003.2 0.7 80
2019-03-28 02:00:00 6.8 7 Nordeste 11 Nordeste 0 1003.2 -- 78
2019-03-28 01:00:00 7.3 8 Nordeste 12 Nordeste 0 1003.2 1.9 74
2019-03-28 00:00:00 8 8 Nordeste 15 Nordeste 0 1002.5 2.1 65
2019-03-27 23:00:00 8.6 9 Nordeste 14 Nordeste 0 -- -- 63
2019-03-27 22:00:00 10.4 8 Nordeste 12 Nordeste 0 1001.3 2.6 55
2019-03-27 21:00:00 12.2 3 Sur 12 Sur 0 1000.4 2 47
2019-03-27 20:00:00 14 10 Sur 17 Sur 0 999.5 1.2 39
2019-03-27 19:00:00 17.7 4 Sudeste 8 Sudoeste 0 998.7 0 26
2019-03-27 18:00:00 19.8 5 Sudoeste 14 Sudoeste 0 998.4 -0.9 20
2019-03-27 17:00:00 20.1 8 Sur 18 Sudoeste 0 998.3 -1.7 22
2019-03-27 16:00:00 19.6 7 Oeste 20 Oeste 0 998.7 -2 26
2019-03-27 15:00:00 18.5 12 Oeste 23 Oeste 0 999.3 -1.7 29
2019-03-27 14:00:00 17 12 Sudoeste 24 Sudoeste 0 1000 -1.4 37
2019-03-27 13:00:00 15.4 15 Sudoeste 24 Sudoeste 0 1000.7 -1.1 41
2019-03-27 12:00:00 13.8 10 Sudoeste 19 Sudoeste 0 1001 -0.8 46
2019-03-27 11:00:00 11.9 9 Sudoeste 17 Sudoeste 0 1001.4 -0.3 52
2019-03-27 10:00:00 9.8 4 Oeste 9 Oeste 0 1001.8 0.7 64
2019-03-27 09:00:00 6.3 4 Nordeste 10 Nordeste 0 1001.8 0.9 74
2019-03-27 08:00:00 4 5 Nordeste 12 Nordeste 0 1001.7 1.1 80
2019-03-27 07:00:00 2.3 5 Nordeste 13 Nordeste 0 1001.1 0.6 86
2019-03-27 06:00:00 2.9 8 Nordeste 13 Nordeste 0 1000.9 0.6 83
2019-03-27 05:00:00 3.5 8 Nordeste 12 Nordeste 0 1000.6 0.2 83
2019-03-27 04:00:00 3.9 7 Nordeste 14 Norte 0 1000.5 0.2 82
2019-03-27 03:00:00 4.9 8 Nordeste 14 Nordeste 0 1000.3 0.1 78
2019-03-27 02:00:00 5.8 9 Nordeste 14 Nordeste 0 1000.4 0.8 75
2019-03-27 01:00:00 6.8 7 Nordeste 11 Norte 0 1000.3 1.1 72
2019-03-27 00:00:00 7.3 6 Nordeste 10 Norte 0 1000.2 2.2 71
2019-03-26 23:00:00 8.4 8 Norte 13 Nordeste 0 999.6 2.7 67
2019-03-26 22:00:00 10.4 10 Este 16 Este 0 999.2 3.4 60
2019-03-26 21:00:00 10.8 6 Sur 24 Sur 0 998 3 59
2019-03-26 20:00:00 12.4 15 Sudoeste 32 Sur 0 996.9 1.6 54
2019-03-26 19:00:00 16.7 16 Sudoeste 33 Sudoeste 0 995.8 0.3 39
2019-03-26 18:00:00 20 12 Sudoeste 22 Sudoeste 0 995 -0.9 25
2019-03-26 17:00:00 21 8 Oeste 20 Oeste 0 995.3 -1.4 21
2019-03-26 16:00:00 20.5 8 Sudoeste 28 Oeste 0 995.5 -2.3 22
2019-03-26 15:00:00 19.6 13 Oeste 28 Sudoeste 0 995.9 -2.6 23
2019-03-26 14:00:00 18.3 16 Sudoeste 30 Oeste 0 996.7 -2.6 26
2019-03-26 13:00:00 16.4 12 Sudoeste 26 Oeste 0 997.8 -1.6 38
2019-03-26 12:00:00 14.2 14 Oeste 26 Oeste 0 998.5 -0.9 49
2019-03-26 11:00:00 11.9 12 Sudoeste 25 Sudoeste 0 999.3 -0.2 55
2019-03-26 10:00:00 9.7 12 Sudoeste 21 Oeste 0 999.4 0.4 67
2019-03-26 09:00:00 6.9 4 Oeste 12 Nordeste 0 999.4 1 73
2019-03-26 08:00:00 4.6 6 Nordeste 10 Norte 0 999.5 2.1 81
2019-03-26 07:00:00 3 6 Norte 12 Norte 0 999 2.2 86
2019-03-26 06:00:00 3.1 6 Nordeste 10 Nordeste 0 998.4 2 85
2019-03-26 05:00:00 3.9 3 Sudeste 12 Sudoeste 0 997.4 0.9 83
2019-03-26 04:00:00 4.6 4 Sur 12 Sudoeste 0 996.8 0.3 80
2019-03-26 03:00:00 5.8 10 Sudoeste 13 Sudoeste 0 996.4 0.4 77
2019-03-26 02:00:00 6.6 10 Sudoeste 13 Sudoeste 0 996.5 1 74
2019-03-26 01:00:00 7.8 7 Sudoeste 19 Sudoeste 0 996.5 1.7 69
2019-03-26 00:00:00 8.7 12 Sudoeste -- -- -- 996 2 64
2019-03-25 23:00:00 10.4 13 Sudoeste 24 Sudoeste 0 995.5 1.9 57
2019-03-25 22:00:00 11.2 8 Sudoeste 15 Oeste 0 994.8 1.5 52
2019-03-25 21:00:00 12.6 6 Sudoeste -- -- -- 994 -- 46
2019-03-25 20:00:00 14.8 7 Sudoeste 18 Sudoeste 0 993.6 0.6 39
2019-03-25 19:00:00 17.6 10 Sudoeste -- -- -- 993.3 -0.2 33
2019-03-25 18:00:00 -- -- -- -- -- -- -- -- --
2019-03-25 17:00:00 21.8 16 Sudoeste 35 Sudoeste 0 993 -2.7 29
2019-03-25 16:00:00 22 19 Sudoeste 32 Sudoeste 0 993.5 -3.4 32
2019-03-25 15:00:00 21.4 16 Oeste 28 Oeste 0 994.4 -3.5 35
2019-03-25 14:00:00 20.3 16 Oeste 30 Oeste 0 995.7 -2.8 37
2019-03-25 13:00:00 18.4 16 Oeste 30 Oeste 0 996.9 -1.8 41
2019-03-25 12:00:00 16.5 18 Oeste 28 Oeste 0 997.9 -0.3 48
2019-03-25 11:00:00 14.4 14 Sudoeste 25 Oeste 0 998.5 0.4 50
2019-03-25 10:00:00 12.3 13 Sudoeste 21 Sudoeste 0 998.7 0.9 56
2019-03-25 09:00:00 9.8 2 Nordeste 9 Norte 0 998.2 0.7 69
2019-03-25 08:00:00 6.6 6 Nordeste 10 Nordeste 0 998.1 0.8 78
2019-03-25 07:00:00 4.6 0 Calma 5 Noroeste 0 997.8 0.2 84
2019-03-25 06:00:00 5.2 3 Norte 6 Norte 0 997.5 -0.3 81
2019-03-25 05:00:00 5.7 3 Sur 5 Sur 0 997.3 -0.7 80
2019-03-25 04:00:00 7.1 0 Calma 8 Este 0 997.6 -0.4 73
2019-03-25 03:00:00 8.6 5 Nordeste 9 Nordeste 0 997.8 -0.4 69
2019-03-25 02:00:00 9.3 5 Nordeste 11 Nordeste 0 998 -- 65
2019-03-25 01:00:00 10.4 10 Nordeste 14 Nordeste 0 998 0.1 61
2019-03-25 00:00:00 11.2 8 Nordeste 12 Nordeste 0 998.2 -- 59